Time;durP1;ratioP1;P1;durP2;ratioP2;P2;SDS_P1;SDS_P2;PMS_P1;PMS_P2;Temp;Humidity;BMP_temperature;BMP_pressure;BME280_temperature;BME280_humidity;BME280_pressure;Samples;Min_cycle;Max_cycle;Signal;HPM_P1;HPM_P2
2022/10/29 00:02:16;;;;;;;8.00;2.45;;;;;;;17.74;63.13;97039.22;10533915;28;20750;-74
2022/10/29 00:07:16;;;;;;;5.78;2.33;;;;;;;17.67;63.63;97043.66;10533146;28;20206;-74
2022/10/29 00:12:17;;;;;;;17.02;3.00;;;;;;;17.89;63.24;97039.97;10533671;28;20255;-74
2022/10/29 00:17:17;;;;;;;17.38;2.75;;;;;;;17.82;63.73;97047.84;10533238;28;20202;-75
2022/10/29 00:22:17;;;;;;;12.48;2.45;;;;;;;17.97;63.26;97050.41;10533285;28;20195;-74
2022/10/29 00:27:18;;;;;;;9.55;2.42;;;;;;;17.95;63.55;97068.34;10533206;28;20200;-74
2022/10/29 00:32:18;;;;;;;7.85;3.17;;;;;;;17.95;63.80;97075.50;10515135;28;20191;-74
2022/10/29 00:37:19;;;;;;;11.10;3.20;;;;;;;17.83;64.68;97081.28;10532910;28;20210;-74
2022/10/29 00:42:19;;;;;;;11.63;2.70;;;;;;;17.77;64.85;97081.25;10532005;28;20186;-74
2022/10/29 00:47:28;;;;;;;9.63;3.03;;;;;;;17.80;65.03;97081.66;10532481;28;20221;-74
2022/10/29 00:52:30;;;;;;;11.68;3.28;;;;;;;17.70;65.54;97083.81;10532644;28;20274;-74
2022/10/29 00:57:35;;;;;;;12.25;3.10;;;;;;;17.74;65.66;97089.59;10514830;28;20193;-74
2022/10/29 01:02:37;;;;;;;10.48;3.20;;;;;;;17.54;66.58;97102.69;10512533;28;20802;-74
2022/10/29 01:07:37;;;;;;;9.35;2.47;;;;;;;17.71;66.33;97090.78;10531351;28;20269;-74
2022/10/29 01:12:40;;;;;;;8.88;2.45;;;;;;;17.51;67.40;97105.72;10532217;28;20764;-74
2022/10/29 01:18:17;;;;;;;14.48;2.92;;;;;;;17.61;67.07;97099.06;10534431;28;20214;-74
2022/10/29 01:23:38;;;;;;;17.42;3.28;;;;;;;17.52;67.61;97097.56;10540207;28;20274;-74
2022/10/29 01:28:57;;;;;;;9.57;2.85;;;;;;;17.47;68.26;97095.50;10522564;28;20277;-74
2022/10/29 01:34:04;;;;;;;12.20;2.90;;;;;;;17.46;68.13;97098.34;10539641;28;20317;-74
2022/10/29 01:39:06;;;;;;;13.38;2.65;;;;;;;17.35;68.76;97099.66;10521729;28;20674;-74
2022/10/29 01:44:18;;;;;;;12.65;3.10;;;;;;;17.13;70.19;97116.53;10521128;28;20190;-74
2022/10/29 01:49:23;;;;;;;15.93;3.05;;;;;;;17.17;70.53;97123.13;10539572;28;20663;-74
2022/10/29 01:54:24;;;;;;;14.13;3.50;;;;;;;17.14;70.79;97132.25;10538460;28;20258;-74
2022/10/29 01:59:28;;;;;;;13.57;2.78;;;;;;;17.23;70.68;97125.00;10520979;28;20309;-74
2022/10/29 02:04:36;;;;;;;8.52;2.67;;;;;;;17.26;71.13;97127.28;10520958;28;20735;-74
2022/10/29 02:09:59;;;;;;;17.35;3.53;;;;;;;17.16;71.82;97129.41;10537994;28;20183;-74
2022/10/29 02:15:06;;;;;;;16.02;3.63;;;;;;;17.00;72.81;97138.38;10543971;28;20321;-74
2022/10/29 02:20:09;;;;;;;9.65;3.20;;;;;;;16.93;73.24;97128.53;10525842;28;20190;-74
2022/10/29 02:25:10;;;;;;;17.63;3.20;;;;;;;16.84;73.64;97123.53;10537968;28;20190;-74
2022/10/29 02:30:10;;;;;;;10.70;3.38;;;;;;;16.77;74.48;97132.22;10537033;28;20533;-74
2022/10/29 02:35:11;;;;;;;11.45;3.15;;;;;;;16.80;74.84;97143.41;10537466;28;20210;-74
2022/10/29 02:40:12;;;;;;;18.88;3.85;;;;;;;16.68;75.37;97141.25;10537096;28;20221;-74
2022/10/29 02:45:12;;;;;;;11.32;3.67;;;;;;;16.51;76.44;97150.41;10536681;28;20651;-74
2022/10/29 02:50:12;;;;;;;16.10;3.90;;;;;;;16.41;76.91;97154.13;10537224;28;20666;-75
2022/10/29 02:55:13;;;;;;;15.50;3.10;;;;;;;16.11;78.41;97161.25;10518028;28;20644;-74
2022/10/29 03:00:14;;;;;;;9.27;3.17;;;;;;;15.49;82.08;97176.22;10536700;28;20551;-74
2022/10/29 03:05:14;;;;;;;17.63;2.90;;;;;;;15.22;84.10;97172.31;10472879;28;20192;-74
2022/10/29 03:10:15;;;;;;;15.05;4.10;;;;;;;14.89;86.22;97174.31;10445931;28;20195;-74
2022/10/29 03:15:15;;;;;;;10.73;3.05;;;;;;;14.98;87.22;97155.59;10445100;28;20212;-74
2022/10/29 03:20:15;;;;;;;14.88;3.90;;;;;;;14.47;90.97;97173.59;10445570;28;20187;-74
2022/10/29 03:25:16;;;;;;;14.32;3.50;;;;;;;14.44;92.63;97174.78;10445076;28;20622;-74
2022/10/29 03:30:16;;;;;;;13.10;3.58;;;;;;;13.89;98.86;97192.16;10445860;28;20184;-74
2022/10/29 03:35:17;;;;;;;14.88;4.68;;;;;;;13.88;100.00;97205.50;10444606;28;20270;-74
2022/10/29 03:40:18;;;;;;;13.23;3.78;;;;;;;13.52;100.00;97201.38;10443504;28;20951;-74
2022/10/29 03:45:18;;;;;;;11.52;3.97;;;;;;;13.42;100.00;97211.22;10426285;28;20191;-74
2022/10/29 03:50:18;;;;;;;10.18;4.70;;;;;;;13.47;100.00;97214.16;10443118;28;20200;-74
2022/10/29 03:55:19;;;;;;;16.40;4.15;;;;;;;13.16;100.00;97213.94;10443285;28;20703;-74
2022/10/29 04:00:19;;;;;;;13.93;3.97;;;;;;;12.98;100.00;97212.22;10425533;28;20184;-74
2022/10/29 04:05:20;;;;;;;11.88;4.00;;;;;;;12.73;100.00;97215.75;10442951;28;20190;-74
2022/10/29 04:10:20;;;;;;;15.50;4.57;;;;;;;12.58;100.00;97223.38;10443312;28;20249;-74
2022/10/29 04:15:20;;;;;;;12.20;4.45;;;;;;;12.45;100.00;97226.41;10442913;28;20226;-74
2022/10/29 04:20:21;;;;;;;8.60;3.90;;;;;;;12.44;100.00;97230.88;10443834;28;20445;-74
2022/10/29 04:25:21;;;;;;;12.80;4.03;;;;;;;12.19;100.00;97247.44;10442900;28;20198;-74
2022/10/29 04:30:22;;;;;;;13.93;4.82;;;;;;;11.84;100.00;97246.47;10442940;28;20187;-74
2022/10/29 04:35:24;;;;;;;11.63;4.10;;;;;;;11.84;100.00;97251.72;10442606;28;20219;-74
2022/10/29 04:40:24;;;;;;;13.50;4.10;;;;;;;11.63;100.00;97245.00;10443092;28;20648;-74
2022/10/29 04:45:25;;;;;;;13.88;4.80;;;;;;;11.66;100.00;97238.63;10425275;28;20191;-74
2022/10/29 04:50:26;;;;;;;19.05;5.00;;;;;;;11.61;100.00;97231.22;10442084;28;20198;-74
2022/10/29 04:55:27;;;;;;;17.83;4.28;;;;;;;11.69;100.00;97231.28;10442544;28;20319;-74
2022/10/29 05:00:28;;;;;;;14.68;4.78;;;;;;;11.71;100.00;97226.69;10442705;28;20191;-74
2022/10/29 05:05:28;;;;;;;8.27;4.25;;;;;;;11.70;100.00;97227.69;10431314;28;20648;-74
2022/10/29 05:10:34;;;;;;;14.27;4.20;;;;;;;11.74;100.00;97229.00;10449284;28;20196;-74
2022/10/29 05:15:35;;;;;;;19.70;4.38;;;;;;;11.53;100.00;97215.38;10448413;28;20220;-74
2022/10/29 05:20:35;;;;;;;12.57;4.43;;;;;;;11.73;100.00;97235.25;10449460;28;20279;-74
2022/10/29 05:25:37;;;;;;;14.20;4.63;;;;;;;11.55;100.00;97237.06;10448603;28;20185;-74
2022/10/29 05:30:38;;;;;;;19.23;5.32;;;;;;;11.26;100.00;97235.44;10431398;28;20275;-74
2022/10/29 05:35:39;;;;;;;17.30;5.10;;;;;;;11.28;100.00;97245.78;10452771;28;20310;-74
2022/10/29 05:40:41;;;;;;;14.13;4.43;;;;;;;11.47;100.00;97250.06;10430583;28;20660;-74
2022/10/29 05:45:41;;;;;;;18.93;5.10;;;;;;;11.45;100.00;97257.28;10448539;28;20188;-74
2022/10/29 05:50:42;;;;;;;18.27;3.87;;;;;;;11.40;100.00;97260.34;10448126;28;20232;-73
2022/10/29 05:55:42;;;;;;;13.60;4.75;;;;;;;11.27;100.00;97252.84;10428279;28;20220;-74
2022/10/29 06:00:44;;;;;;;17.53;4.50;;;;;;;11.33;100.00;97260.13;10448412;28;20188;-74
2022/10/29 06:05:48;;;;;;;18.42;5.00;;;;;;;11.36;100.00;97259.84;10417462;28;20188;-74
2022/10/29 06:10:48;;;;;;;15.30;5.40;;;;;;;11.37;100.00;97258.84;10455519;28;20195;-75
2022/10/29 06:15:49;;;;;;;16.20;5.10;;;;;;;11.40;100.00;97257.72;10454812;28;20224;-75
2022/10/29 06:20:49;;;;;;;22.80;10.10;;;;;;;11.56;100.00;97259.69;10455347;28;20237;-75
2022/10/29 06:25:50;;;;;;;26.00;6.97;;;;;;;11.84;100.00;97257.81;10455052;28;20547;-75
2022/10/29 06:30:50;;;;;;;39.17;16.17;;;;;;;12.04;100.00;97255.88;10454419;28;20241;-75
2022/10/29 06:35:51;;;;;;;23.58;7.63;;;;;;;12.21;100.00;97258.63;10436498;28;20234;-75
2022/10/29 06:40:54;;;;;;;18.23;5.20;;;;;;;12.34;100.00;97253.78;10454271;28;20310;-75
2022/10/29 06:45:54;;;;;;;14.25;5.88;;;;;;;12.46;100.00;97252.53;10454120;28;20184;-75
2022/10/29 06:50:58;;;;;;;12.20;4.20;;;;;;;12.35;100.00;97250.19;10453588;28;20235;-75
2022/10/29 06:55:58;;;;;;;51.97;12.57;;;;;;;12.61;100.00;97262.50;10436227;28;20330;-75
2022/10/29 07:00:59;;;;;;;11.30;4.00;;;;;;;13.08;100.00;97269.97;10463990;28;20250;-75
2022/10/29 07:06:00;;;;;;;13.15;5.10;;;;;;;13.33;100.00;97265.63;10492457;28;20219;-75
2022/10/29 07:11:01;;;;;;;8.38;4.10;;;;;;;13.51;100.00;97259.44;10493804;28;20286;-75
2022/10/29 07:16:02;;;;;;;17.20;6.78;;;;;;;13.66;100.00;97264.88;10474042;28;20223;-75
2022/10/29 07:21:03;;;;;;;12.63;4.00;;;;;;;14.06;100.00;97271.19;10488591;28;20179;-75
2022/10/29 07:26:03;;;;;;;16.48;5.03;;;;;;;14.05;100.00;97251.91;10456123;28;20554;-74
2022/10/29 07:31:04;;;;;;;9.25;4.22;;;;;;;13.93;100.00;97257.69;10448228;28;20195;-75
2022/10/29 07:36:05;;;;;;;11.13;4.25;;;;;;;14.26;100.00;97254.03;10467057;28;20219;-75
2022/10/29 07:41:05;;;;;;;14.75;4.10;;;;;;;14.72;100.00;97253.50;10492143;28;20191;-75
2022/10/29 07:46:06;;;;;;;17.13;4.57;;;;;;;15.30;100.00;97248.81;10474064;28;20194;-75
2022/10/29 07:51:06;;;;;;;15.38;5.00;;;;;;;15.54;100.00;97240.91;10491822;28;20661;-75
2022/10/29 07:56:06;;;;;;;16.30;3.83;;;;;;;15.80;100.00;97232.66;10491783;28;20234;-75
2022/10/29 08:01:07;;;;;;;14.70;4.78;;;;;;;16.35;100.00;97214.84;10491611;28;20191;-75
2022/10/29 08:06:07;;;;;;;11.20;4.28;;;;;;;17.17;96.63;97199.91;10489007;28;20558;-75
2022/10/29 08:11:07;;;;;;;16.40;4.38;;;;;;;17.34;92.73;97200.50;10490782;28;20270;-74
2022/10/29 08:16:08;;;;;;;13.80;3.85;;;;;;;18.42;87.40;97176.53;10490121;28;20222;-75
2022/10/29 08:21:08;;;;;;;10.95;4.25;;;;;;;19.11;82.59;97167.72;10491649;28;20195;-75
2022/10/29 08:26:09;;;;;;;16.67;5.18;;;;;;;19.12;82.18;97179.16;10472665;28;20603;-75
2022/10/29 08:31:09;;;;;;;13.93;3.88;;;;;;;20.09;76.34;97132.66;10491450;28;20585;-75
2022/10/29 08:36:10;;;;;;;12.95;4.22;;;;;;;20.19;75.67;97126.91;10500645;28;20571;-74
2022/10/29 08:41:22;;;;;;;16.52;4.70;;;;;;;19.90;76.62;97144.94;10532053;28;20627;-75
2022/10/29 08:46:43;;;;;;;13.07;4.05;;;;;;;20.61;73.25;97119.44;10532141;28;20542;-75
2022/10/29 08:52:08;;;;;;;12.43;3.95;;;;;;;19.34;74.98;97129.34;10514207;28;20715;-75
2022/10/29 08:57:17;;;;;;;8.88;3.25;;;;;;;19.36;75.63;97140.59;10483284;28;20683;-75
2022/10/29 09:02:17;;;;;;;12.70;3.70;;;;;;;19.59;74.50;97127.72;10447797;28;20180;-75
2022/10/29 09:13:46;;;;;;;15.88;3.67;;;;;;;19.28;77.28;97144.25;10372733;28;20223;-74
2022/10/29 09:19:05;;;;;;;13.45;3.63;;;;;;;19.91;74.89;97114.69;10430417;28;20184;-75
2022/10/29 09:24:43;;;;;;;21.40;3.55;;;;;;;20.77;71.88;97098.72;10446825;28;20276;-74
2022/10/29 09:30:22;;;;;;;12.35;3.70;;;;;;;20.44;71.83;97094.31;10485447;28;20709;-74
2022/10/29 09:35:34;;;;;;;15.23;4.00;;;;;;;20.89;70.66;97090.88;10305354;28;20230;-74
2022/10/29 09:40:36;;;;;;;14.73;3.72;;;;;;;19.85;72.92;97101.41;10479443;28;20681;-75
2022/10/29 09:46:03;;;;;;;14.95;3.97;;;;;;;20.30;72.57;97102.31;10478984;28;20195;-75
2022/10/29 09:51:16;;;;;;;15.30;3.97;;;;;;;20.17;71.87;97105.03;10434276;28;20237;-74
2022/10/29 09:56:16;;;;;;;13.32;3.75;;;;;;;20.61;71.05;97103.47;10479490;28;20250;-75
2022/10/29 10:01:17;;;;;;;16.15;3.42;;;;;;;21.38;69.49;97098.16;10497591;28;20245;-75
2022/10/29 10:06:17;;;;;;;12.20;4.38;;;;;;;21.83;66.46;97077.72;10496815;28;20195;-75
2022/10/29 10:11:18;;;;;;;16.95;3.92;;;;;;;21.20;69.06;97095.41;10497023;28;20245;-75
2022/10/29 10:16:23;;;;;;;16.20;3.75;;;;;;;21.53;69.50;97107.72;10478573;28;20227;-75
2022/10/29 10:21:29;;;;;;;17.17;3.97;;;;;;;23.02;65.74;97073.91;10496474;28;20195;-74
2022/10/29 10:26:38;;;;;;;15.45;4.22;;;;;;;23.61;62.59;97045.47;10495828;28;20670;-74
2022/10/29 10:31:47;;;;;;;16.13;3.78;;;;;;;20.87;70.84;97116.91;10496081;28;20221;-75
2022/10/29 10:37:04;;;;;;;12.93;3.90;;;;;;;21.36;69.44;97084.25;10495632;28;20306;-75
2022/10/29 10:42:16;;;;;;;19.48;4.72;;;;;;;21.01;72.24;97116.63;10496139;28;20197;-75
2022/10/29 10:47:22;;;;;;;15.25;4.30;;;;;;;21.22;71.52;97106.66;10477637;28;20643;-75
2022/10/29 10:52:29;;;;;;;13.60;4.38;;;;;;;21.45;69.38;97094.63;10494613;28;20227;-74
2022/10/29 10:57:54;;;;;;;18.77;4.45;;;;;;;21.53;66.53;97047.22;10477061;28;20577;-74
2022/10/29 11:03:03;;;;;;;20.48;4.13;;;;;;;21.94;66.20;97053.00;10476805;28;20187;-74
2022/10/29 11:08:27;;;;;;;19.75;4.15;;;;;;;21.83;65.51;97037.72;10494826;28;20191;-75
2022/10/29 11:13:29;;;;;;;13.60;4.35;;;;;;;22.79;64.09;97033.53;10476140;28;20305;-75
2022/10/29 11:18:35;;;;;;;11.27;3.60;;;;;;;25.10;57.40;96972.72;10476422;28;20195;-75
2022/10/29 11:23:47;;;;;;;10.88;3.50;;;;;;;25.21;53.95;96910.13;10475983;28;20183;-75
2022/10/29 11:29:18;;;;;;;12.98;4.25;;;;;;;25.23;53.29;96902.66;10476217;28;20686;-75
2022/10/29 11:35:04;;;;;;;16.02;3.85;;;;;;;25.04;54.34;96915.50;10493541;28;20215;-75
2022/10/29 11:40:12;;;;;;;11.73;3.90;;;;;;;25.41;53.44;96900.78;10464974;28;20226;-75
2022/10/29 11:45:16;;;;;;;14.80;3.63;;;;;;;26.92;50.75;96886.88;10492841;28;20219;-75
2022/10/29 11:50:39;;;;;;;17.35;3.90;;;;;;;26.23;51.16;96874.94;10474772;28;20195;-75
2022/10/29 11:56:13;;;;;;;13.35;3.28;;;;;;;28.08;47.55;96852.00;10490959;28;20202;-75
2022/10/29 12:01:42;;;;;;;13.77;3.75;;;;;;;25.77;50.12;96845.72;10480787;28;20195;-74
2022/10/29 12:06:54;;;;;;;18.73;3.80;;;;;;;23.77;54.93;96883.47;10491762;28;20223;-75
2022/10/29 12:12:03;;;;;;;18.38;3.53;;;;;;;23.28;57.89;96929.22;10492404;28;20187;-74
2022/10/29 12:17:33;;;;;;;15.57;3.65;;;;;;;23.60;56.38;96904.78;10473385;28;20229;-74
2022/10/29 12:22:40;;;;;;;16.88;3.08;;;;;;;24.19;54.12;96885.09;10491952;28;20191;-75
2022/10/29 12:28:03;;;;;;;11.55;3.53;;;;;;;24.25;53.50;96877.97;10477828;28;20677;-74
2022/10/29 12:33:12;;;;;;;15.35;3.63;;;;;;;24.14;53.93;96879.66;10476996;28;20195;-73
2022/10/29 12:38:24;;;;;;;15.23;3.30;;;;;;;23.66;54.62;96873.59;10474244;28;20313;-73
2022/10/29 12:43:27;;;;;;;19.13;3.83;;;;;;;23.32;56.19;96900.97;10473053;28;20219;-73
2022/10/29 12:48:46;;;;;;;18.10;3.40;;;;;;;22.58;59.25;96935.22;10491347;28;20192;-74
2022/10/29 12:53:55;;;;;;;14.35;3.92;;;;;;;22.57;59.80;96934.44;10490475;28;20559;-74
2022/10/29 12:58:58;;;;;;;16.83;4.63;;;;;;;22.47;60.26;96936.81;10473347;28;20184;-74
2022/10/29 13:04:01;;;;;;;14.75;3.67;;;;;;;21.81;61.64;96936.59;10472066;28;20652;-74
2022/10/29 13:09:13;;;;;;;15.40;3.92;;;;;;;22.71;59.41;96908.34;10473287;28;20183;-74
2022/10/29 13:14:22;;;;;;;14.10;3.72;;;;;;;23.91;57.50;96899.28;10477366;28;20702;-74
2022/10/29 13:19:43;;;;;;;16.73;4.20;;;;;;;24.29;56.08;96876.41;10464539;28;20193;-74
2022/10/29 13:24:43;;;;;;;13.82;4.00;;;;;;;24.70;55.86;96883.34;10480205;28;20277;-74
2022/10/29 13:29:49;;;;;;;19.00;3.90;;;;;;;23.51;57.36;96885.59;10480968;28;20248;-74
2022/10/29 13:34:54;;;;;;;14.75;3.78;;;;;;;23.37;60.02;96921.66;10479873;28;20190;-74
2022/10/29 13:40:21;;;;;;;17.77;3.90;;;;;;;23.19;60.75;96927.94;10498006;28;20764;-74
2022/10/29 13:45:21;;;;;;;19.73;4.13;;;;;;;23.20;61.02;96932.25;10485473;28;20227;-74
2022/10/29 13:50:22;;;;;;;20.35;4.13;;;;;;;22.72;64.07;96974.03;10479945;28;20199;-74
2022/10/29 13:55:26;;;;;;;9.32;3.75;;;;;;;21.98;69.74;97032.84;10479787;28;20194;-74
2022/10/29 14:00:46;;;;;;;14.02;3.65;;;;;;;22.12;71.31;97043.38;10460381;28;20204;-74
2022/10/29 14:05:52;;;;;;;16.50;4.85;;;;;;;21.36;73.62;97060.25;10474973;28;20218;-74
2022/10/29 14:10:56;;;;;;;14.52;4.13;;;;;;;21.66;73.27;97042.81;10476096;28;20252;-74
2022/10/29 14:16:06;;;;;;;22.15;5.07;;;;;;;21.12;76.10;97058.38;10476906;28;20192;-74
2022/10/29 14:21:24;;;;;;;17.00;4.38;;;;;;;21.50;77.34;97060.16;10496126;28;20480;-74
2022/10/29 14:26:29;;;;;;;15.98;4.13;;;;;;;22.39;72.34;97017.25;10495620;28;20243;-74
2022/10/29 14:31:30;;;;;;;16.45;3.67;;;;;;;21.96;71.90;97012.75;10496011;28;20665;-74
2022/10/29 14:36:39;;;;;;;20.00;3.92;;;;;;;21.46;74.72;97041.09;10495798;28;20214;-74
2022/10/29 14:41:39;;;;;;;17.75;4.28;;;;;;;20.77;79.43;97075.56;10496078;28;20192;-74
2022/10/29 14:46:40;;;;;;;8.20;3.53;;;;;;;20.55;81.34;97069.72;10493040;28;20686;-74
2022/10/29 14:51:49;;;;;;;12.52;4.07;;;;;;;20.14;83.27;97065.53;10494154;28;20284;-74
2022/10/29 14:56:53;;;;;;;14.52;4.15;;;;;;;20.19;84.30;97062.25;10495247;28;20191;-74
2022/10/29 15:01:58;;;;;;;18.58;4.45;;;;;;;19.47;89.69;97078.88;10476710;28;20187;-74
2022/10/29 15:07:22;;;;;;;14.77;4.60;;;;;;;19.00;94.15;97085.97;10476746;28;20219;-74
2022/10/29 15:12:26;;;;;;;16.70;5.03;;;;;;;18.56;97.90;97085.41;10481228;28;20219;-74
2022/10/29 15:17:29;;;;;;;19.85;4.80;;;;;;;18.28;97.24;97070.34;10494292;28;20187;-74
2022/10/29 15:22:38;;;;;;;16.45;4.75;;;;;;;17.58;96.83;97070.31;10476104;28;20199;-74
2022/10/29 15:27:39;;;;;;;14.57;5.05;;;;;;;17.38;98.11;97075.44;10493851;28;20246;-73
2022/10/29 15:32:39;;;;;;;20.23;4.88;;;;;;;16.83;100.00;97082.19;10494065;28;20625;-73
2022/10/29 15:37:42;;;;;;;16.45;4.50;;;;;;;16.44;100.00;97076.25;10492616;28;20210;-74
2022/10/29 15:42:46;;;;;;;14.23;6.03;;;;;;;16.22;100.00;97078.84;10492886;28;20209;-74
2022/10/29 15:47:52;;;;;;;16.85;5.57;;;;;;;16.04;100.00;97081.84;10460107;28;20203;-74
2022/10/29 15:52:55;;;;;;;18.85;5.60;;;;;;;15.97;100.00;97077.47;10433617;28;20318;-75
2022/10/29 15:58:03;;;;;;;16.42;6.05;;;;;;;15.77;100.00;97080.63;10450660;28;20252;-74
2022/10/29 16:03:17;;;;;;;12.48;5.00;;;;;;;15.59;100.00;97078.31;10450623;28;20233;-74
2022/10/29 16:08:34;;;;;;;21.00;7.72;;;;;;;15.70;100.00;97079.69;10451219;28;20199;-74
2022/10/29 16:13:35;;;;;;;19.60;6.55;;;;;;;15.78;100.00;97068.25;10450792;28;20183;-74
2022/10/29 16:18:35;;;;;;;20.42;6.25;;;;;;;15.72;100.00;97066.31;10450582;28;20192;-74
2022/10/29 16:23:36;;;;;;;29.10;7.13;;;;;;;15.69;100.00;97078.84;10450182;28;20220;-74
2022/10/29 16:28:37;;;;;;;14.50;5.60;;;;;;;15.56;100.00;97081.31;10450212;28;20192;-74
2022/10/29 16:33:37;;;;;;;16.98;6.35;;;;;;;15.58;100.00;97078.47;10449524;28;20499;-74
2022/10/29 16:38:38;;;;;;;22.27;8.65;;;;;;;15.48;100.00;97078.72;10450533;28;20264;-74
2022/10/29 16:43:38;;;;;;;14.63;6.43;;;;;;;15.36;100.00;97083.63;10449136;28;20259;-74
2022/10/29 16:48:39;;;;;;;63.50;27.50;;;;;;;15.23;100.00;97078.09;10449507;28;20184;-74
2022/10/29 16:53:39;;;;;;;22.98;14.13;;;;;;;15.45;100.00;97073.78;10448853;28;20292;-74
2022/10/29 16:58:40;;;;;;;30.45;7.65;;;;;;;15.63;100.00;97073.47;10449727;28;20194;-73
2022/10/29 17:03:40;;;;;;;12.70;6.43;;;;;;;15.75;100.00;97056.19;10448852;28;20706;-74
2022/10/29 17:08:41;;;;;;;16.65;5.70;;;;;;;16.04;100.00;97047.47;10449031;28;20283;-74
2022/10/29 17:13:41;;;;;;;12.82;5.85;;;;;;;16.23;100.00;97053.22;10449093;28;20551;-74
2022/10/29 17:18:41;;;;;;;18.48;5.70;;;;;;;16.37;100.00;97051.53;10448815;28;20230;-74
2022/10/29 17:23:42;;;;;;;19.75;6.68;;;;;;;16.27;100.00;97048.38;10448035;28;20586;-74
2022/10/29 17:28:42;;;;;;;19.80;5.80;;;;;;;16.34;97.44;97049.28;10463388;28;20200;-74
2022/10/29 17:33:43;;;;;;;15.68;5.10;;;;;;;16.33;96.43;97047.66;10449511;28;20184;-74
2022/10/29 17:38:44;;;;;;;21.13;5.38;;;;;;;16.22;95.36;97046.31;10473510;28;20219;-74
2022/10/29 17:43:44;;;;;;;13.77;5.80;;;;;;;16.26;94.07;97049.38;10469146;28;20234;-74
2022/10/29 17:48:44;;;;;;;15.95;5.53;;;;;;;16.04;95.35;97047.47;10463167;28;20192;-74
2022/10/29 17:53:45;;;;;;;15.57;5.57;;;;;;;15.92;96.45;97053.41;10456639;28;20228;-73
2022/10/29 17:58:45;;;;;;;20.50;6.05;;;;;;;15.92;95.65;97045.47;10469325;28;20196;-73
2022/10/29 18:03:45;;;;;;;26.85;6.10;;;;;;;15.83;95.28;97050.03;10469163;28;20321;-73
2022/10/29 18:08:46;;;;;;;17.05;5.35;;;;;;;15.76;96.15;97047.28;10472746;28;20203;-74
2022/10/29 18:13:48;;;;;;;24.25;6.05;;;;;;;15.84;94.48;97041.91;10456508;28;20610;-74
2022/10/29 18:18:49;;;;;;;16.90;6.57;;;;;;;15.75;95.90;97047.44;10473116;28;20196;-74
2022/10/29 18:23:50;;;;;;;18.55;6.75;;;;;;;15.63;97.17;97049.72;10464771;28;20247;-74
2022/10/29 18:28:52;;;;;;;22.58;7.65;;;;;;;15.60;97.14;97050.06;10453244;28;20198;-74
2022/10/29 18:33:53;;;;;;;20.92;7.28;;;;;;;15.55;96.65;97057.72;10454770;28;20215;-75
2022/10/29 18:38:55;;;;;;;17.98;7.28;;;;;;;15.44;96.74;97051.06;10436483;28;20696;-74
2022/10/29 18:43:56;;;;;;;19.63;7.10;;;;;;;15.29;96.48;97061.56;10453995;28;20254;-74
2022/10/29 18:48:58;;;;;;;18.52;5.35;;;;;;;15.32;95.84;97048.00;10454043;28;20648;-74
2022/10/29 18:53:59;;;;;;;19.75;6.20;;;;;;;15.20;96.50;97052.06;10404399;28;20244;-74
2022/10/29 18:58:59;;;;;;;13.43;5.38;;;;;;;14.99;98.60;97066.72;10430407;28;20590;-74
2022/10/29 19:04:03;;;;;;;17.08;5.22;;;;;;;14.98;98.40;97065.91;10431306;28;20259;-74
2022/10/29 19:09:05;;;;;;;19.73;5.85;;;;;;;14.81;99.50;97059.13;10450216;28;20215;-74
2022/10/29 19:14:08;;;;;;;15.63;5.45;;;;;;;14.75;100.00;97067.72;10432541;28;20211;-74
2022/10/29 19:19:11;;;;;;;14.25;8.13;;;;;;;14.46;100.00;97077.06;10435038;28;20234;-74
2022/10/29 19:24:13;;;;;;;17.00;5.20;;;;;;;14.40;100.00;97068.03;10452433;28;20223;-74
2022/10/29 19:29:14;;;;;;;17.77;4.80;;;;;;;14.24;100.00;97076.81;10452819;28;20192;-74
2022/10/29 19:34:14;;;;;;;17.90;5.05;;;;;;;14.26;100.00;97079.28;10433848;28;20195;-74
2022/10/29 19:39:14;;;;;;;7.60;4.57;;;;;;;14.17;100.00;97075.03;10452308;28;20212;-74
2022/10/29 19:44:15;;;;;;;20.25;5.43;;;;;;;14.16;100.00;97073.41;10452078;28;20216;-73
2022/10/29 19:49:15;;;;;;;15.63;5.20;;;;;;;14.19;100.00;97081.75;10451632;28;20297;-74
2022/10/29 19:54:15;;;;;;;15.73;5.30;;;;;;;14.11;100.00;97087.06;10518605;28;20716;-74
2022/10/29 19:59:16;;;;;;;15.77;5.10;;;;;;;13.96;100.00;97080.88;10499924;28;20599;-74
2022/10/29 20:04:16;;;;;;;17.20;4.63;;;;;;;14.05;100.00;97074.59;10533715;28;20343;-74
2022/10/29 20:09:17;;;;;;;16.27;4.50;;;;;;;14.09;100.00;97078.53;10534448;28;20182;-74
2022/10/29 20:14:17;;;;;;;12.38;4.60;;;;;;;13.94;100.00;97073.13;10533811;28;20190;-74
2022/10/29 20:19:17;;;;;;;13.65;5.13;;;;;;;13.96;100.00;97071.13;10533953;28;20243;-74
2022/10/29 20:24:19;;;;;;;17.45;5.47;;;;;;;14.07;100.00;97065.53;10532945;28;20218;-74
2022/10/29 20:29:19;;;;;;;11.80;4.85;;;;;;;13.96;100.00;97065.88;10533653;28;20186;-74
2022/10/29 20:34:20;;;;;;;14.95;4.55;;;;;;;14.06;100.00;97063.88;10533086;28;20186;-73
2022/10/29 20:39:20;;;;;;;17.17;6.35;;;;;;;14.05;100.00;97064.03;10532679;28;20214;-73
2022/10/29 20:44:21;;;;;;;12.88;4.90;;;;;;;13.99;100.00;97068.16;10533205;28;20226;-74
2022/10/29 20:49:21;;;;;;;20.98;6.65;;;;;;;13.84;100.00;97065.44;10533127;28;20639;-73
2022/10/29 20:54:21;;;;;;;16.30;5.95;;;;;;;13.87;100.00;97065.09;10532501;28;20269;-73
2022/10/29 20:59:22;;;;;;;22.65;6.95;;;;;;;13.85;100.00;97055.72;10532674;28;20186;-73
2022/10/29 21:04:22;;;;;;;12.13;5.80;;;;;;;13.84;100.00;97064.59;10531493;28;20223;-73
2022/10/29 21:09:23;;;;;;;15.23;5.78;;;;;;;13.86;100.00;97060.00;10532881;28;20282;-74
2022/10/29 21:14:23;;;;;;;18.30;5.97;;;;;;;13.88;100.00;97074.63;10531849;28;20221;-73
2022/10/29 21:19:24;;;;;;;15.10;4.70;;;;;;;14.01;98.71;97058.31;10514365;28;20285;-73
2022/10/29 21:24:25;;;;;;;13.60;4.53;;;;;;;13.91;99.13;97063.75;10532394;28;20225;-74
2022/10/29 21:29:25;;;;;;;15.93;4.72;;;;;;;13.90;99.52;97062.13;10532075;28;20186;-73
2022/10/29 21:34:25;;;;;;;11.95;4.45;;;;;;;13.75;100.00;97063.78;10535695;28;20607;-73
2022/10/29 21:39:26;;;;;;;11.75;4.55;;;;;;;13.70;100.00;97066.09;10540228;28;20214;-74
2022/10/29 21:44:26;;;;;;;12.88;4.32;;;;;;;13.55;100.00;97052.78;10521649;28;20284;-74
2022/10/29 21:49:27;;;;;;;14.68;3.72;;;;;;;13.60;100.00;97053.13;10539953;28;20376;-74
2022/10/29 21:54:27;;;;;;;14.65;4.20;;;;;;;13.52;100.00;97043.44;10539273;28;20288;-74
2022/10/29 21:59:27;;;;;;;11.57;4.45;;;;;;;13.40;100.00;97051.81;10546654;28;20200;-74
2022/10/29 22:04:28;;;;;;;16.65;4.63;;;;;;;13.46;100.00;97048.53;10545803;28;20226;-74
2022/10/29 22:09:28;;;;;;;9.05;3.85;;;;;;;13.60;100.00;97045.22;10539491;28;20195;-73
2022/10/29 22:14:28;;;;;;;14.23;4.80;;;;;;;13.59;99.24;97043.56;10538794;28;20197;-73
2022/10/29 22:19:29;;;;;;;10.43;4.15;;;;;;;13.49;100.00;97037.66;10538879;28;20697;-73
2022/10/29 22:24:29;;;;;;;14.75;4.00;;;;;;;13.67;98.41;97029.56;10538335;28;20218;-73
2022/10/29 22:29:30;;;;;;;9.48;3.42;;;;;;;13.66;98.27;97027.91;10538410;28;20190;-73
2022/10/29 22:34:31;;;;;;;16.08;3.55;;;;;;;13.65;97.64;97021.03;10537695;28;20210;-73
2022/10/29 22:39:31;;;;;;;13.30;3.65;;;;;;;13.70;97.11;97024.78;10538210;28;20552;-73
2022/10/29 22:44:32;;;;;;;11.88;3.90;;;;;;;13.90;95.02;97013.88;10536514;28;20301;-74
2022/10/29 22:49:32;;;;;;;10.02;3.88;;;;;;;13.89;94.36;97005.16;10537347;28;20187;-73
2022/10/29 22:54:32;;;;;;;10.00;4.50;;;;;;;13.97;93.56;97006.13;10537191;28;20234;-73
2022/10/29 22:59:33;;;;;;;11.32;4.28;;;;;;;13.89;93.63;97013.06;10536822;28;20186;-73
2022/10/29 23:04:33;;;;;;;16.15;4.07;;;;;;;14.08;91.77;96996.00;10536805;28;20246;-73
2022/10/29 23:09:34;;;;;;;20.40;3.88;;;;;;;14.26;89.77;96984.44;10536763;28;20717;-73
2022/10/29 23:14:34;;;;;;;7.03;2.90;;;;;;;14.34;88.69;96981.72;10536423;28;20600;-73
2022/10/29 23:19:34;;;;;;;14.18;3.75;;;;;;;14.40;88.42;96974.97;10536268;28;20352;-73